Funkstown, Maryland
Current Conditions -  °F | °C
As of 11:29 PM on Monday 22 Dec 2014 (Local Time) from KHGR Reporting Station
Haze Haze  
Wind Chill: 25°   Ceiling: 200
Heat Index: 33°   Visibility: 0.75mi
Dew Point: 31°   Wind: 9mph
Humidity: 92%   Direction: 330°NNW
Pressure: 30.1"   Gusts: NA
Location:  39.61°N, 77.7°W
Report Text: KHGR 230429Z AUTO 33008KT 3/4SM BR OVC002 01/M01 A3010 RMK AO2 RAB14E15FZRAB15E23 P0001 I1000 T00061006
Loading
Personal Weather Stations






























Interactive Weather Map New forecast layout! Learn more

10-Day Weather Forecast

Advertisements
Track Severe Weather on mobile